Time;durP1;ratioP1;P1;durP2;ratioP2;P2;SDS_P1;SDS_P2;PMS_P1;PMS_P2;Temp;Humidity;BMP_temperature;BMP_pressure;BME280_temperature;BME280_humidity;BME280_pressure;Samples;Min_cycle;Max_cycle;Signal;HPM_P1;HPM_P2
2021/04/25 00:02:04;;;;;;;6.00;1.75;;;;;;;2.56;75.25;101843.06;115731;1209;62445;-77
2021/04/25 00:04:30;;;;;;;8.07;1.50;;;;;;;2.53;75.02;101845.02;115820;1209;62269;-77
2021/04/25 00:06:57;;;;;;;3.27;1.20;;;;;;;2.49;75.69;101848.75;115819;1209;62499;-77
2021/04/25 00:09:24;;;;;;;3.63;2.07;;;;;;;2.45;75.47;101841.10;115804;1209;62789;-77
2021/04/25 00:11:51;;;;;;;5.97;1.60;;;;;;;2.45;75.44;101842.89;115821;1209;62797;-77
2021/04/25 00:14:17;;;;;;;3.20;1.50;;;;;;;2.43;75.98;101840.35;115793;1209;63527;-76
2021/04/25 00:16:44;;;;;;;3.73;1.43;;;;;;;2.41;76.32;101841.39;115785;1209;62255;-77
2021/04/25 00:19:11;;;;;;;7.90;1.60;;;;;;;2.37;76.39;101838.11;115819;1209;62349;-77
2021/04/25 00:21:40;;;;;;;13.07;2.73;;;;;;;2.35;76.27;101845.21;115738;1209;62305;-77
2021/04/25 00:24:07;;;;;;;5.13;1.90;;;;;;;2.29;76.90;101842.96;115785;1209;62240;-77
2021/04/25 00:26:34;;;;;;;9.37;2.53;;;;;;;2.28;76.90;101836.05;115771;1209;62632;-77
2021/04/25 00:29:00;;;;;;;7.40;1.57;;;;;;;2.26;77.05;101835.30;115771;1209;62705;-77
2021/04/25 00:31:27;;;;;;;5.80;2.03;;;;;;;2.25;76.75;101833.61;115767;1209;62376;-77
2021/04/25 00:33:53;;;;;;;7.60;1.90;;;;;;;2.21;77.15;101827.73;115757;1209;62689;-77
2021/04/25 00:36:21;;;;;;;7.00;2.10;;;;;;;2.18;77.08;101829.69;115866;1209;62305;-77
2021/04/25 00:38:47;;;;;;;8.27;1.90;;;;;;;2.18;77.65;101835.76;115794;1211;63035;-76
2021/04/25 00:41:15;;;;;;;5.27;1.07;;;;;;;2.16;77.18;101826.32;115790;1209;62311;-76
2021/04/25 00:43:42;;;;;;;6.37;2.47;;;;;;;2.15;77.83;101829.89;115829;1211;63569;-76
2021/04/25 00:46:08;;;;;;;7.17;2.67;;;;;;;2.12;77.74;101830.05;115768;1209;62829;-76
2021/04/25 00:48:35;;;;;;;7.80;1.45;;;;;;;2.09;77.75;101820.61;115803;1209;62709;-76
2021/04/25 00:51:03;;;;;;;7.67;1.20;;;;;;;2.06;78.15;101830.41;115809;1209;62856;-76
2021/04/25 00:53:30;;;;;;;5.73;1.40;;;;;;;2.01;77.78;101822.84;115796;1209;62315;-77
2021/04/25 00:55:57;;;;;;;6.65;1.90;;;;;;;1.98;78.02;101823.88;115819;1209;62311;-77
2021/04/25 00:58:23;;;;;;;5.27;2.10;;;;;;;1.97;77.92;101814.33;115771;1209;62271;-77
2021/04/25 01:00:50;;;;;;;6.43;2.10;;;;;;;1.94;78.35;101811.91;115774;1209;64032;-77
2021/04/25 01:03:20;;;;;;;3.90;1.85;;;;;;;1.91;78.10;101814.69;115815;1211;62567;-76
2021/04/25 01:05:46;;;;;;;7.63;1.43;;;;;;;1.88;78.30;101812.27;115780;1209;63013;-77
2021/04/25 01:08:13;;;;;;;4.30;2.05;;;;;;;1.84;78.36;101816.00;115812;1209;62544;-77
2021/04/25 01:10:39;;;;;;;3.30;1.03;;;;;;;1.83;78.31;101819.56;115762;1209;62374;-76
2021/04/25 01:13:07;;;;;;;5.30;1.70;;;;;;;1.82;78.36;101812.63;115751;1212;62108;-77
2021/04/25 01:15:33;;;;;;;6.33;2.17;;;;;;;1.80;78.39;101817.11;115751;1212;62664;-77
2021/04/25 01:18:00;;;;;;;8.20;2.40;;;;;;;1.77;78.08;101814.69;115831;1209;63236;-77
2021/04/25 01:20:27;;;;;;;9.40;2.37;;;;;;;1.73;78.27;101819.25;115745;1209;62384;-76
2021/04/25 01:22:54;;;;;;;6.33;2.07;;;;;;;1.70;79.22;101818.57;115760;1212;62456;-77
2021/04/25 01:25:23;;;;;;;4.30;1.80;;;;;;;1.67;78.08;101816.98;115813;1209;62408;-76
2021/04/25 01:27:50;;;;;;;6.60;2.53;;;;;;;1.67;79.09;101810.92;115774;1212;63418;-77
2021/04/25 01:30:25;;;;;;;5.87;2.23;;;;;;;1.65;78.28;101818.02;115764;1209;62427;-76
2021/04/25 01:32:51;;;;;;;7.70;2.10;;;;;;;1.60;79.16;101819.13;115710;1209;62238;-77
2021/04/25 01:35:21;;;;;;;6.50;1.60;;;;;;;1.59;78.95;101822.68;115840;1209;63019;-78
2021/04/25 01:37:50;;;;;;;5.00;2.57;;;;;;;1.55;79.35;101817.69;115849;1209;62211;-77
2021/04/25 01:40:18;;;;;;;6.37;1.83;;;;;;;1.53;79.48;101817.80;115741;1209;62248;-77
2021/04/25 01:42:45;;;;;;;3.60;1.77;;;;;;;1.52;78.92;101826.56;115812;1207;62274;-77
2021/04/25 01:45:16;;;;;;;5.57;1.60;;;;;;;1.50;79.76;101811.89;115784;1209;62634;-77
2021/04/25 01:47:47;;;;;;;5.47;1.90;;;;;;;1.48;79.57;101814.59;115755;1209;62396;-77
2021/04/25 01:50:16;;;;;;;5.80;1.83;;;;;;;1.46;79.67;101816.45;115798;1209;62848;-78
2021/04/25 01:52:46;;;;;;;5.23;1.10;;;;;;;1.44;79.51;101818.31;115857;1209;62939;-77
2021/04/25 01:55:14;;;;;;;9.87;2.73;;;;;;;1.36;79.39;101800.47;115754;1209;62912;-77
2021/04/25 01:57:41;;;;;;;7.03;2.17;;;;;;;1.41;79.04;101814.11;115832;1209;62444;-77
2021/04/25 02:00:11;;;;;;;9.00;1.70;;;;;;;1.41;79.17;101821.95;115776;1209;62210;-77
2021/04/25 02:02:38;;;;;;;4.83;1.50;;;;;;;1.37;78.88;101812.59;115768;1209;62380;-78
2021/04/25 02:05:06;;;;;;;4.85;2.50;;;;;;;1.34;79.96;101811.92;115731;1209;63349;-77
2021/04/25 02:07:32;;;;;;;8.13;2.83;;;;;;;1.32;79.24;101814.64;115785;1209;64112;-77
2021/04/25 02:09:59;;;;;;;5.50;1.60;;;;;;;1.32;79.26;101821.62;115864;1209;64090;-77
2021/04/25 02:12:26;;;;;;;8.53;2.23;;;;;;;1.29;79.63;101820.03;115769;1209;61805;-76
2021/04/25 02:14:52;;;;;;;3.80;1.90;;;;;;;1.26;79.15;101819.38;115725;1209;62586;-77
2021/04/25 02:17:19;;;;;;;4.33;1.30;;;;;;;1.21;79.60;101817.87;115803;1209;62086;-77
2021/04/25 02:19:45;;;;;;;5.27;2.17;;;;;;;1.18;79.92;101817.19;115741;1209;62464;-78
2021/04/25 02:22:12;;;;;;;5.07;2.30;;;;;;;1.18;79.17;101820.64;115754;1209;62628;-77
2021/04/25 02:24:38;;;;;;;6.40;2.33;;;;;;;1.16;78.99;101822.49;115784;1209;62444;-77
2021/04/25 02:27:05;;;;;;;14.17;1.97;;;;;;;1.13;79.61;101821.84;115723;1209;62368;-77
2021/04/25 02:29:32;;;;;;;6.37;2.10;;;;;;;1.09;79.65;101833.39;115833;1209;63447;-77
2021/04/25 02:31:59;;;;;;;5.00;1.85;;;;;;;1.07;79.81;101832.64;115750;1209;62322;-77
2021/04/25 02:34:26;;;;;;;7.03;1.77;;;;;;;1.04;79.76;101831.01;115797;1209;62178;-77
2021/04/25 02:36:52;;;;;;;9.75;2.00;;;;;;;1.03;80.05;101834.56;115751;1209;62369;-77
2021/04/25 02:39:19;;;;;;;4.13;1.43;;;;;;;1.01;80.09;101831.20;115814;1209;62542;-76
2021/04/25 02:41:46;;;;;;;5.90;1.20;;;;;;;0.99;79.63;101828.66;115764;1209;63706;-77
2021/04/25 02:44:13;;;;;;;4.60;1.53;;;;;;;0.97;79.97;101833.13;115776;1209;62405;-77
2021/04/25 02:46:39;;;;;;;3.53;1.63;;;;;;;0.97;80.86;101833.13;115751;1209;62919;-77
2021/04/25 02:49:06;;;;;;;8.73;2.17;;;;;;;0.98;80.11;101831.38;115810;1209;62376;-77
2021/04/25 02:51:34;;;;;;;5.70;2.30;;;;;;;0.97;80.45;101832.29;115744;1209;62530;-78
2021/04/25 02:54:00;;;;;;;6.47;2.20;;;;;;;0.96;80.37;101839.30;115810;1209;64022;-77
2021/04/25 02:56:26;;;;;;;6.17;1.90;;;;;;;0.92;80.77;101837.77;115766;1209;64097;-77
2021/04/25 02:58:53;;;;;;;2.45;1.50;;;;;;;0.92;79.92;101837.77;115834;1207;62815;-77
2021/04/25 03:01:20;;;;;;;4.65;1.40;;;;;;;0.92;80.24;101837.77;115786;1209;62405;-77
2021/04/25 03:03:47;;;;;;;11.47;2.20;;;;;;;0.90;79.72;101833.56;115828;1209;62925;-77
2021/04/25 03:06:14;;;;;;;8.03;2.23;;;;;;;0.86;79.51;101826.82;115803;1209;62848;-77
2021/04/25 03:08:41;;;;;;;6.00;2.67;;;;;;;0.82;80.39;101826.14;115781;1209;62327;-77
2021/04/25 03:11:07;;;;;;;8.97;2.33;;;;;;;0.80;79.83;101834.05;115756;1209;63059;-77
2021/04/25 03:13:34;;;;;;;10.40;2.53;;;;;;;0.78;79.92;101833.28;115805;1209;62488;-78
2021/04/25 03:16:01;;;;;;;4.13;1.27;;;;;;;0.73;80.13;101831.88;115823;1207;62605;-77
2021/04/25 03:18:29;;;;;;;4.30;1.35;;;;;;;0.71;80.31;101833.72;115768;1209;62346;-78
2021/04/25 03:20:56;;;;;;;4.23;1.60;;;;;;;0.71;80.67;101833.72;115733;1209;63772;-78
2021/04/25 03:23:23;;;;;;;8.07;1.97;;;;;;;0.68;80.42;101839.96;115828;1208;62215;-78
2021/04/25 03:25:50;;;;;;;5.07;2.20;;;;;;;0.66;80.82;101826.14;115797;1208;62562;-78
2021/04/25 03:28:16;;;;;;;8.73;2.57;;;;;;;0.66;80.67;101831.36;115791;1209;62898;-78
2021/04/25 03:30:45;;;;;;;9.30;2.50;;;;;;;0.64;80.22;101830.61;115804;1209;63179;-78
2021/04/25 03:33:12;;;;;;;9.33;2.77;;;;;;;0.63;81.23;101826.29;115834;1209;62272;-78
2021/04/25 03:35:39;;;;;;;4.15;1.45;;;;;;;0.63;81.38;101831.52;115814;1208;62303;-78
2021/04/25 03:38:05;;;;;;;4.10;2.20;;;;;;;0.62;81.90;101829.84;115781;1209;62440;-77
2021/04/25 03:40:32;;;;;;;4.37;1.67;;;;;;;0.64;81.22;101827.99;115806;1207;62373;-78
2021/04/25 03:42:58;;;;;;;13.47;3.10;;;;;;;0.65;81.58;101827.05;115809;1209;62517;-78
2021/04/25 03:45:25;;;;;;;6.90;2.35;;;;;;;0.63;81.05;101831.52;115772;1209;62495;-78
2021/04/25 03:47:53;;;;;;;4.70;2.23;;;;;;;0.59;81.31;101825.60;115780;1209;62545;-78
2021/04/25 03:50:23;;;;;;;3.20;1.43;;;;;;;0.58;81.96;101828.32;115840;1208;62127;-77
2021/04/25 03:52:50;;;;;;;4.87;1.93;;;;;;;0.59;81.35;101825.60;115807;1209;61801;-78
2021/04/25 03:55:19;;;;;;;8.93;2.53;;;;;;;0.59;81.11;101819.55;115813;1209;62859;-77
2021/04/25 03:57:47;;;;;;;4.73;2.50;;;;;;;0.59;81.72;101827.38;115787;1209;63546;-77
2021/04/25 04:00:15;;;;;;;3.23;1.17;;;;;;;0.58;81.39;101823.09;115754;1209;62471;-77
2021/04/25 04:02:42;;;;;;;8.10;3.00;;;;;;;0.58;80.84;101828.32;115828;1209;62131;-77
2021/04/25 04:05:11;;;;;;;8.20;2.00;;;;;;;0.58;81.11;101823.94;115801;1209;62721;-77
2021/04/25 04:07:37;;;;;;;22.17;2.63;;;;;;;0.57;81.47;101826.62;115846;1209;62355;-77
2021/04/25 04:10:07;;;;;;;8.17;2.43;;;;;;;0.55;80.33;101823.24;115752;1209;62197;-77
2021/04/25 04:12:34;;;;;;;6.60;2.20;;;;;;;0.54;80.15;101832.85;115815;1209;61996;-77
2021/04/25 04:15:01;;;;;;;6.67;3.00;;;;;;;0.54;80.77;101829.41;115757;1209;62302;-77
2021/04/25 04:17:29;;;;;;;7.20;3.00;;;;;;;0.54;80.65;101830.24;115793;1209;62152;-77
2021/04/25 04:19:56;;;;;;;9.47;2.60;;;;;;;0.55;80.46;101834.55;115871;1209;62581;-77
2021/04/25 04:22:23;;;;;;;4.07;1.77;;;;;;;0.54;80.38;101830.24;115742;1209;62275;-77
2021/04/25 04:24:49;;;;;;;4.73;1.80;;;;;;;0.55;80.90;101831.08;115808;1209;62355;-77
2021/04/25 04:27:16;;;;;;;6.55;2.10;;;;;;;0.56;80.57;101830.16;115758;1209;62453;-77
2021/04/25 04:29:42;;;;;;;6.57;2.33;;;;;;;0.60;80.74;101836.91;115758;1209;62355;-77
2021/04/25 04:32:11;;;;;;;5.80;2.47;;;;;;;0.63;80.14;101835.90;115787;1209;63006;-77
2021/04/25 04:34:38;;;;;;;5.80;2.10;;;;;;;0.68;80.38;101839.09;115815;1208;62344;-78
2021/04/25 04:37:05;;;;;;;6.23;1.93;;;;;;;0.70;80.09;101848.56;115838;1209;62494;-77
2021/04/25 04:39:32;;;;;;;3.70;1.30;;;;;;;0.71;79.82;101837.17;115854;1209;62983;-78
2021/04/25 04:41:58;;;;;;;5.05;2.35;;;;;;;0.74;79.95;101844.83;115741;1209;62237;-77
2021/04/25 04:44:25;;;;;;;8.93;2.27;;;;;;;0.79;79.63;101842.83;115820;1209;62274;-78
2021/04/25 04:46:51;;;;;;;7.97;1.57;;;;;;;0.84;79.89;101831.28;115845;1209;62727;-77
2021/04/25 04:49:18;;;;;;;5.17;1.63;;;;;;;0.91;80.02;101837.84;115804;1208;62362;-77
2021/04/25 04:51:45;;;;;;;5.90;2.07;;;;;;;0.97;80.04;101840.13;115826;1209;62363;-77
2021/04/25 04:54:12;;;;;;;7.37;2.00;;;;;;;1.04;80.18;101840.63;115820;1209;62733;-76
2021/04/25 04:56:41;;;;;;;3.85;1.95;;;;;;;1.11;79.70;101836.77;115840;1209;62674;-77
2021/04/25 04:59:07;;;;;;;7.00;2.10;;;;;;;1.18;79.48;101836.31;115790;1209;64061;-79
2021/04/25 05:01:34;;;;;;;6.07;1.97;;;;;;;1.30;79.93;101836.58;115817;1208;62464;-78
2021/04/25 05:04:01;;;;;;;4.50;2.07;;;;;;;1.41;79.23;101834.19;115805;1208;62483;-79
2021/04/25 05:06:28;;;;;;;5.20;1.35;;;;;;;1.50;79.32;101838.88;115811;1209;62276;-78
2021/04/25 05:08:54;;;;;;;6.40;1.75;;;;;;;1.60;79.16;101840.05;115834;1209;62131;-78
2021/04/25 05:11:21;;;;;;;7.30;1.90;;;;;;;1.75;79.04;101837.48;115814;1209;62152;-78
2021/04/25 05:13:48;;;;;;;3.75;1.60;;;;;;;1.94;78.62;101843.31;115796;1209;62375;-78
2021/04/25 05:16:15;;;;;;;7.63;2.90;;;;;;;2.17;77.67;101838.49;115736;1209;62536;-78
2021/04/25 05:18:42;;;;;;;8.33;2.00;;;;;;;2.40;77.04;101840.55;115840;1209;62748;-78
2021/04/25 05:21:09;;;;;;;8.53;1.47;;;;;;;2.64;77.10;101842.59;115810;1209;62302;-77
2021/04/25 05:23:36;;;;;;;3.33;1.37;;;;;;;2.86;76.94;101842.92;115880;1209;62652;-78
2021/04/25 05:26:03;;;;;;;9.13;1.90;;;;;;;3.09;75.75;101842.42;115823;1209;62245;-78
2021/04/25 05:28:30;;;;;;;5.93;1.63;;;;;;;3.30;75.11;101834.95;115803;1209;62673;-78
2021/04/25 05:30:59;;;;;;;2.40;1.25;;;;;;;3.45;74.69;101840.03;115806;1209;62401;-77
2021/04/25 05:33:25;;;;;;;6.30;1.10;;;;;;;3.56;73.78;101841.95;115849;1209;62348;-78
2021/04/25 05:35:53;;;;;;;5.60;1.83;;;;;;;3.64;71.39;101844.91;115844;1209;62344;-78
2021/04/25 05:38:21;;;;;;;4.20;1.55;;;;;;;3.69;71.27;101844.59;115851;1209;62257;-78
2021/04/25 05:40:47;;;;;;;4.67;1.93;;;;;;;3.74;70.02;101850.40;115573;1209;62171;-78
2021/04/25 05:43:14;;;;;;;11.70;2.57;;;;;;;3.76;69.07;101852.90;115758;1209;62960;-77
2021/04/25 05:45:41;;;;;;;5.25;1.20;;;;;;;3.74;68.14;101849.53;115822;1209;62830;-77
2021/04/25 05:48:07;;;;;;;5.30;1.10;;;;;;;3.73;68.54;101859.20;115785;1209;62428;-77
2021/04/25 05:50:34;;;;;;;7.70;2.10;;;;;;;3.72;68.29;101864.55;115761;1209;62207;-77
2021/04/25 05:53:01;;;;;;;2.97;1.70;;;;;;;3.75;68.47;101861.73;115800;1209;62418;-77
2021/04/25 05:55:28;;;;;;;10.80;2.90;;;;;;;3.74;67.41;101860.90;115762;1209;62929;-77
2021/04/25 05:57:55;;;;;;;8.67;1.60;;;;;;;3.76;67.67;101855.52;115812;1209;63099;-76
2021/04/25 06:00:25;;;;;;;2.60;1.23;;;;;;;3.77;67.05;101859.84;115849;1209;62393;-77
2021/04/25 06:02:55;;;;;;;7.27;2.17;;;;;;;3.78;66.89;101858.89;115826;1209;62300;-78
2021/04/25 06:05:22;;;;;;;5.23;1.83;;;;;;;3.81;66.97;101861.33;115810;1208;62234;-78
2021/04/25 06:07:52;;;;;;;5.93;1.60;;;;;;;3.83;66.58;101860.28;115985;1209;62176;-77
2021/04/25 06:10:20;;;;;;;8.00;1.80;;;;;;;3.90;66.34;101865.12;115770;1208;63098;-76
2021/04/25 06:12:48;;;;;;;2.07;0.80;;;;;;;3.93;66.02;101857.89;115984;1209;62410;-77
2021/04/25 06:15:16;;;;;;;6.30;1.83;;;;;;;3.96;66.22;101855.05;115945;1208;62436;-77
2021/04/25 06:17:43;;;;;;;4.40;1.60;;;;;;;4.02;66.09;101859.89;115756;1209;62398;-77
2021/04/25 06:20:12;;;;;;;3.90;1.20;;;;;;;4.06;66.55;101863.98;115831;1209;62352;-78
2021/04/25 06:22:40;;;;;;;4.10;1.30;;;;;;;4.14;66.77;101862.62;115825;1209;63494;-77
2021/04/25 06:25:09;;;;;;;5.27;1.70;;;;;;;4.17;65.07;101863.26;115731;1209;63126;-78
2021/04/25 06:27:39;;;;;;;7.27;1.93;;;;;;;4.23;66.07;101861.98;115770;1208;62639;-78
2021/04/25 06:30:08;;;;;;;5.40;1.67;;;;;;;4.26;65.72;101870.50;115826;1209;62165;-78
2021/04/25 06:32:38;;;;;;;5.73;1.20;;;;;;;4.29;64.66;101874.70;115834;1209;62539;-77
2021/04/25 06:35:05;;;;;;;3.87;0.80;;;;;;;4.32;64.99;101871.88;115791;1209;63796;-77
2021/04/25 06:37:32;;;;;;;8.03;1.40;;;;;;;4.34;63.62;101875.23;115796;1209;62407;-78
2021/04/25 06:40:03;;;;;;;6.67;1.40;;;;;;;4.39;63.94;101874.91;115846;1209;62208;-77
2021/04/25 06:42:31;;;;;;;3.30;0.90;;;;;;;4.44;64.37;101862.29;115797;1209;62342;-77
2021/04/25 06:44:58;;;;;;;2.00;1.00;;;;;;;4.50;64.05;101869.75;115739;1209;63139;-78
2021/04/25 06:47:24;;;;;;;3.43;1.30;;;;;;;4.58;63.96;101871.86;115879;1209;62243;-77
2021/04/25 06:49:51;;;;;;;3.83;1.40;;;;;;;4.60;63.65;101868.17;115791;1208;62338;-78
2021/04/25 06:52:17;;;;;;;4.77;1.07;;;;;;;4.65;62.28;101873.09;115788;1209;62562;-78
2021/04/25 06:54:44;;;;;;;1.43;0.77;;;;;;;4.70;63.26;101882.35;115819;1208;62470;-76
2021/04/25 06:57:11;;;;;;;3.30;1.03;;;;;;;4.70;62.20;101887.61;115750;1208;62847;-76
2021/04/25 06:59:37;;;;;;;3.83;1.10;;;;;;;4.75;62.91;101884.66;115815;1209;63723;-77
2021/04/25 07:02:04;;;;;;;3.47;1.07;;;;;;;4.79;62.65;101875.61;115770;1209;62339;-78
2021/04/25 07:04:31;;;;;;;3.85;0.65;;;;;;;4.85;62.65;101885.69;115805;1208;63104;-78
2021/04/25 07:06:57;;;;;;;4.33;1.43;;;;;;;4.89;62.27;101887.16;115823;1209;63580;-77
2021/04/25 07:09:24;;;;;;;8.63;1.20;;;;;;;4.97;62.60;101876.08;115782;1209;62614;-77
2021/04/25 07:11:52;;;;;;;5.05;1.30;;;;;;;5.11;62.06;101875.94;115781;1209;62586;-78
2021/04/25 07:14:19;;;;;;;3.30;0.80;;;;;;;5.21;60.11;101880.55;115824;1209;62649;-77
2021/04/25 07:16:48;;;;;;;3.40;0.87;;;;;;;5.26;59.88;101888.95;115770;1209;62510;-76
2021/04/25 07:19:15;;;;;;;4.47;1.47;;;;;;;5.35;58.83;101884.80;115789;1209;62543;-77
2021/04/25 07:21:41;;;;;;;6.20;1.55;;;;;;;5.43;58.01;101883.29;115810;1209;62192;-77
2021/04/25 07:24:08;;;;;;;2.43;1.07;;;;;;;5.55;58.66;101873.67;115744;1209;62900;-77
2021/04/25 07:26:37;;;;;;;2.37;0.80;;;;;;;5.70;57.71;101879.59;115783;1209;62999;-77
2021/04/25 07:29:04;;;;;;;1.35;0.70;;;;;;;5.82;57.22;101880.45;115729;1209;62421;-77
2021/04/25 07:31:32;;;;;;;3.20;1.07;;;;;;;5.93;56.73;101877.88;115760;1209;62438;-77
2021/04/25 07:33:59;;;;;;;4.37;1.00;;;;;;;6.04;55.55;101891.09;115797;1209;62648;-77
2021/04/25 07:36:27;;;;;;;3.87;1.07;;;;;;;6.15;56.19;101881.55;115785;1209;62536;-77
2021/04/25 07:38:54;;;;;;;9.10;2.07;;;;;;;6.29;55.57;101879.53;115786;1209;62908;-77
2021/04/25 07:41:21;;;;;;;2.30;0.80;;;;;;;6.41;55.70;101888.28;115792;1209;62780;-77
2021/04/25 07:43:47;;;;;;;2.47;0.80;;;;;;;6.47;55.21;101879.90;115805;1209;62300;-77
2021/04/25 07:46:16;;;;;;;6.60;0.90;;;;;;;6.59;55.40;101893.08;115800;1209;62716;-78
2021/04/25 07:48:44;;;;;;;4.45;0.75;;;;;;;6.62;53.05;101898.13;115770;1209;62309;-78
2021/04/25 07:51:11;;;;;;;3.85;1.20;;;;;;;6.64;52.84;101888.30;115845;1208;62113;-78
2021/04/25 07:53:38;;;;;;;3.47;0.90;;;;;;;6.67;53.09;101888.91;115807;1209;62822;-79
2021/04/25 07:56:06;;;;;;;4.63;1.23;;;;;;;6.90;53.63;101888.88;115811;1209;61807;-79
2021/04/25 07:58:33;;;;;;;2.17;0.90;;;;;;;7.08;52.42;101887.42;115825;1208;62170;-79
2021/04/25 08:01:04;;;;;;;4.60;0.70;;;;;;;7.08;51.31;101881.31;115785;1209;63352;-79
2021/04/25 08:03:31;;;;;;;4.93;0.87;;;;;;;7.07;52.11;101893.64;115839;1208;62076;-79
2021/04/25 08:05:58;;;;;;;4.73;0.77;;;;;;;7.03;51.42;101896.66;115866;1209;62656;-79
2021/04/25 08:08:24;;;;;;;3.43;0.90;;;;;;;7.09;51.36;101893.53;115817;1209;62849;-78
2021/04/25 08:10:51;;;;;;;2.47;0.60;;;;;;;7.14;52.29;101891.38;115777;1208;62286;-78
2021/04/25 08:13:17;;;;;;;7.93;1.70;;;;;;;7.12;50.69;101888.86;115798;1209;62889;-78
2021/04/25 08:15:44;;;;;;;3.63;0.90;;;;;;;7.10;49.99;101887.31;115808;1209;62542;-78
2021/04/25 08:18:11;;;;;;;2.13;0.90;;;;;;;7.19;49.03;101894.48;115807;1209;62461;-77
2021/04/25 08:20:37;;;;;;;1.63;0.57;;;;;;;7.32;48.85;101889.05;115780;1209;62860;-78
2021/04/25 08:23:04;;;;;;;3.75;1.50;;;;;;;7.41;49.99;101887.46;115779;1209;62938;-78
2021/04/25 08:25:31;;;;;;;2.53;0.80;;;;;;;7.57;49.73;101887.89;115846;1209;62284;-79
2021/04/25 08:27:57;;;;;;;3.47;1.30;;;;;;;7.74;50.13;101879.41;115789;1209;62896;-78
2021/04/25 08:30:24;;;;;;;1.20;0.60;;;;;;;7.94;48.74;101884.83;115776;1208;63305;-79
2021/04/25 08:32:51;;;;;;;3.00;0.90;;;;;;;8.04;47.26;101890.20;115792;1209;62487;-78
2021/04/25 08:35:19;;;;;;;4.93;0.83;;;;;;;8.05;46.26;101890.05;115802;1208;62696;-79
2021/04/25 08:37:46;;;;;;;2.20;0.60;;;;;;;8.06;46.21;101886.45;115767;1209;63048;-79
2021/04/25 08:40:14;;;;;;;3.10;0.70;;;;;;;8.29;47.45;101886.32;115770;1209;62302;-78
2021/04/25 08:42:42;;;;;;;1.93;0.83;;;;;;;8.51;46.47;101877.41;115764;1209;62702;-79
2021/04/25 08:45:09;;;;;;;6.33;1.13;;;;;;;8.53;45.83;101892.17;115790;1209;62777;-80
2021/04/25 08:47:47;;;;;;;0.85;0.50;;;;;;;8.49;46.38;101890.75;115830;1208;62613;-80
2021/04/25 08:50:14;;;;;;;3.27;0.80;;;;;;;8.49;46.12;101900.50;115852;1209;64603;-76
2021/04/25 08:52:41;;;;;;;1.97;1.00;;;;;;;8.41;45.23;101898.50;115720;1209;62574;-77
2021/04/25 08:55:08;;;;;;;3.87;0.80;;;;;;;8.47;45.86;101889.22;115835;1209;62252;-77
2021/04/25 08:57:35;;;;;;;1.93;0.83;;;;;;;8.48;44.98;101891.73;115749;1209;63070;-78
2021/04/25 09:00:04;;;;;;;2.33;0.70;;;;;;;8.38;44.61;101896.93;115803;1209;62318;-76
2021/04/25 09:02:30;;;;;;;2.17;0.97;;;;;;;8.22;44.68;101901.84;115791;1208;63391;-77
2021/04/25 09:04:57;;;;;;;4.30;1.10;;;;;;;8.20;45.54;101902.94;115806;1209;62175;-78
2021/04/25 09:07:24;;;;;;;5.97;1.30;;;;;;;8.25;43.98;101892.84;115726;1209;62311;-79
2021/04/25 09:09:55;;;;;;;3.90;1.10;;;;;;;8.52;44.04;101879.93;115809;1209;63064;-78
2021/04/25 09:12:40;;;;;;;4.50;1.60;;;;;;;8.75;44.06;101885.84;115989;1209;62169;-79
2021/04/25 09:15:06;;;;;;;;;;;;;;;9.11;44.70;101880.94;115935;1216;62746;-78
2021/04/25 09:18:03;;;;;;;3.50;1.20;;;;;;;9.30;42.85;101874.02;115816;1209;63094;-80
2021/04/25 09:20:42;;;;;;;2.45;0.80;;;;;;;9.41;43.47;101871.22;115791;1209;62180;-79
2021/04/25 09:23:11;;;;;;;3.40;1.10;;;;;;;9.37;43.30;101881.28;115787;1209;62530;-78
2021/04/25 09:25:39;;;;;;;4.13;1.30;;;;;;;9.32;41.81;101872.89;115757;1209;62349;-78
2021/04/25 09:28:14;;;;;;;4.00;1.30;;;;;;;9.43;42.44;101889.63;115838;1209;62335;-79
2021/04/25 09:31:15;;;;;;;4.57;1.17;;;;;;;9.32;42.58;101883.48;115740;1209;62221;-80
2021/04/25 09:33:58;;;;;;;3.00;1.17;;;;;;;9.41;42.86;101876.52;115865;1209;62218;-79
2021/04/25 09:36:28;;;;;;;2.50;0.90;;;;;;;9.55;43.80;101872.64;115731;1209;62668;-79
2021/04/25 09:39:12;;;;;;;3.00;1.10;;;;;;;9.56;42.76;101877.81;115927;1209;61862;-80
2021/04/25 09:41:39;;;;;;;2.10;0.97;;;;;;;9.56;42.48;101877.81;115829;1209;62336;-78
2021/04/25 09:44:07;;;;;;;3.77;1.20;;;;;;;9.55;42.86;101877.94;115832;1209;62441;-78
2021/04/25 09:46:54;;;;;;;4.95;1.20;;;;;;;9.50;41.97;101880.15;115903;1209;62388;-79
2021/04/25 09:49:37;;;;;;;3.10;0.90;;;;;;;9.31;42.75;101870.41;115872;1209;62581;-79
2021/04/25 09:52:05;;;;;;;3.27;1.00;;;;;;;9.29;42.97;101867.88;115884;1209;62195;-79
2021/04/25 09:54:33;;;;;;;3.70;1.50;;;;;;;9.46;43.37;101868.19;115867;1209;62872;-78
2021/04/25 09:57:00;;;;;;;3.77;1.10;;;;;;;9.71;42.84;101859.67;115837;1209;62518;-79
2021/04/25 09:59:26;;;;;;;3.55;1.10;;;;;;;10.05;41.35;101861.00;115786;1209;62180;-79
2021/04/25 10:02:09;;;;;;;2.85;1.60;;;;;;;10.35;41.57;101860.00;115835;1209;62617;-79
2021/04/25 10:04:37;;;;;;;1.57;0.87;;;;;;;10.59;40.34;101857.66;115737;1209;64131;-79
2021/04/25 10:07:06;;;;;;;2.77;1.10;;;;;;;10.68;39.94;101863.07;115871;1209;62643;-80
2021/04/25 10:09:34;;;;;;;3.70;1.63;;;;;;;10.65;40.00;101856.25;115785;1208;64393;-80
2021/04/25 10:12:03;;;;;;;3.27;1.10;;;;;;;10.64;40.39;101861.69;115823;1208;62382;-79
2021/04/25 10:14:31;;;;;;;4.10;1.30;;;;;;;10.54;40.02;101859.92;115764;1209;62414;-78
2021/04/25 10:17:00;;;;;;;3.50;1.30;;;;;;;10.80;40.11;101857.42;115810;1209;62225;-78
2021/04/25 10:19:27;;;;;;;5.07;1.50;;;;;;;10.96;39.78;101859.41;115825;1209;62930;-79
2021/04/25 10:21:54;;;;;;;2.93;1.20;;;;;;;11.15;39.35;101857.63;115801;1209;62315;-80
2021/04/25 10:24:22;;;;;;;2.35;1.45;;;;;;;11.15;37.80;101852.32;115781;1208;62406;-79
2021/04/25 10:27:12;;;;;;;3.50;1.67;;;;;;;11.37;37.13;101851.89;115857;1209;62358;-80
2021/04/25 10:29:44;;;;;;;5.75;2.10;;;;;;;11.40;37.25;101856.88;115849;1208;62334;-79
2021/04/25 10:32:12;;;;;;;3.00;1.45;;;;;;;11.34;37.93;101856.66;115833;1208;63270;-79
2021/04/25 10:34:38;;;;;;;3.70;1.70;;;;;;;11.23;37.53;101855.06;115830;1209;62827;-79
2021/04/25 10:37:08;;;;;;;3.20;1.10;;;;;;;11.19;37.91;101853.69;115846;1209;62482;-79
2021/04/25 10:39:41;;;;;;;3.83;1.57;;;;;;;11.12;37.73;101860.59;115887;1208;62371;-79
2021/04/25 10:42:16;;;;;;;2.40;1.20;;;;;;;10.94;37.70;101861.38;115886;1209;62259;-80
2021/04/25 10:45:05;;;;;;;4.03;1.47;;;;;;;10.77;38.53;101859.52;115828;1209;62310;-80
2021/04/25 10:47:36;;;;;;;5.73;2.00;;;;;;;10.77;38.52;101859.52;115832;1208;62535;-79
2021/04/25 10:50:26;;;;;;;2.20;1.10;;;;;;;11.06;37.92;101855.88;115864;1209;62534;-78
2021/04/25 10:53:16;;;;;;;3.35;1.45;;;;;;;11.55;37.78;101856.36;115799;1209;63700;-80
2021/04/25 10:55:45;;;;;;;3.43;1.10;;;;;;;11.97;36.14;101853.07;115895;1209;62229;-80
2021/04/25 10:58:11;;;;;;;2.87;1.20;;;;;;;12.02;35.49;101856.08;115876;1209;64140;-80
2021/04/25 11:00:42;;;;;;;2.63;0.90;;;;;;;12.00;35.50;101858.06;115888;1209;62954;-80
2021/04/25 11:03:37;;;;;;;2.83;1.30;;;;;;;11.86;35.65;101856.78;115885;1209;62264;-79
2021/04/25 11:06:04;;;;;;;;;;;;;;;11.65;35.32;101859.77;115884;1216;62307;-79
2021/04/25 11:08:30;;;;;;;2.77;1.40;;;;;;;11.55;35.98;101861.67;115856;1209;62375;-79
2021/04/25 11:10:57;;;;;;;3.50;1.40;;;;;;;11.47;36.06;101862.42;115850;1209;62502;-79
2021/04/25 11:13:57;;;;;;;3.87;1.30;;;;;;;11.19;35.44;101862.48;115816;1209;62863;-79
2021/04/25 11:16:22;;;;;;;3.40;1.40;;;;;;;11.49;36.49;101854.30;115837;1208;62747;-78
2021/04/25 11:18:51;;;;;;;3.90;1.20;;;;;;;11.58;35.24;101856.89;115864;1209;63285;-79
2021/04/25 11:24:18;;;;;;;2.90;1.33;;;;;;;12.08;34.31;101851.98;115870;1208;62409;-79
2021/04/25 11:26:55;;;;;;;1.80;0.97;;;;;;;12.40;34.99;101854.81;115800;1209;62405;-81
2021/04/25 11:29:27;;;;;;;2.70;1.40;;;;;;;12.76;32.22;101846.66;115848;1209;62318;-80
2021/04/25 11:31:58;;;;;;;2.63;0.90;;;;;;;13.02;33.19;101848.39;115884;1209;62173;-80
2021/04/25 11:34:31;;;;;;;3.07;1.03;;;;;;;13.09;31.42;101848.58;115858;1209;62388;-80